LFGJ/DLE METAR and TAF weather

Enter ICAO airport designator
Station Type Date Time Source
LFGJ METAR 2021/10/22 20:00 UTC NOAA

LFGJ 222000Z AUTO VRB02KT CAVOK 05/04 Q1026


Station Type Date Time Source
LFGJ Decoded METAR 2021/10/22 20:00 UTC NOAA

Dole Tavaux, France (LFGJ) 47-02-34N 005-26-06E
Oct 22, 2021 - 04:00 PM EDT / 2021.10.22 2000 UTC
Wind: Variable at 2 MPH (2 KT):0
Visibility: greater than 7 mile(s):0
Temperature: 41 F (5 C)
Dew Point: 39 F (4 C)
Relative Humidity: 93%
Pressure (altimeter): 30.30 in. Hg (1026 hPa)
ob: LFGJ 222000Z AUTO VRB02KT CAVOK 05/04 Q1026
cycle: 20

Station Type Date Time Source
LFGJ TAF 2020/06/22 09:21 UTC NOAA

TAF LFGJ 220800Z 2209/2221 01008KT 9999 FEW035 BKN053
BECMG 2212/2215 CAVOK

Example: see airport list